Flight Track Log - Related Links

Times and Time Zones

All times are in EDT time to prevent confusion due to time zone crossing. See the N23WJ flight status page for this flight to view local times or setup timezone preferences in your user account.

Time Position Orientation Groundspeed Altitude Reporting Facility
EDT Latitude Longitude Course Direction KTS MPH feet Rate Location/Type
Thu 12:53:10 PM 27.4969 -80.4061 297° West 137 158 2,400  Level Miami Center
Thu 12:55:10 PM 27.5569 -80.5111 303° West 177 204 26,000 1,933 Climbing Miami Center
Thu 12:56:00 PM 27.8091 -80.6591 319° Northwest  Level FlightAware Approximate
Thu 12:56:10 PM 27.5939 -80.5381 327° Northwest 177 204 8,200  Level Miami Center
Thu 12:57:00 PM 27.8645 -80.7085 322° Northwest  Level FlightAware Approximate
Thu 12:57:10 PM 27.6503 -80.5375 North 192 221 8,900  Level Miami Center
Thu 12:58:10 PM 27.7233 -80.5422 357° North 239 275 8,900 1,250 Level Miami Center
Thu 12:59:10 PM 27.7894 -80.5656 343° North 239 275 11,400 2,300 Climbing Miami Center
Thu 01:00:10 PM 27.8428 -80.6022 329° Northwest 215 247 13,500 2,000 Climbing Miami Center
Thu 01:01:10 PM 27.8794 -80.6389 319° Northwest 205 236 15,400 1,750 Climbing Miami Center
Thu 01:02:10 PM 27.9178 -80.6822 315° West 200 230 17,000 1,650 Climbing Miami Center
Thu 01:03:10 PM 27.9606 -80.7283 316° Northwest 195 224 18,700 1,550 Climbing Miami Center
Thu 01:04:10 PM 27.9989 -80.7744 313° West 195 224 20,100 1,400 Climbing Miami Center
Thu 01:05:10 PM 28.0414 -80.8206 316° Northwest 201 231 21,500 1,250 Climbing Miami Center
Thu 01:06:10 PM 28.0861 -80.8669 318° Northwest 201 231 22,600 1,039 Climbing Miami Center
Thu 01:08:09 PM 28.1792 -80.9642 317° Northwest 222 255 24,600 905 Climbing Jacksonville Center
Thu 01:09:09 PM 28.2258 -81.0103 319° Northwest 222 255 25,300 700 Climbing Jacksonville Center
Thu 01:10:09 PM 28.2744 -81.0567 320° Northwest 222 255 26,000 650 Climbing Jacksonville Center
Thu 01:11:09 PM 28.3211 -81.1053 317° Northwest 222 255 26,600 500 Climbing Jacksonville Center
Thu 01:12:09 PM 28.3742 -81.1608 317° Northwest 227 261 27,000 200 Climbing Jacksonville Center
Thu 01:13:09 PM 28.4269 -81.2142 318° Northwest 239 275 27,000  Level Jacksonville Center
Thu 01:14:09 PM 28.4819 -81.2725 317° Northwest 254 292 27,000  Level Jacksonville Center
Thu 01:15:09 PM 28.5392 -81.3331 317° Northwest 267 307 27,000  Level Jacksonville Center
Thu 01:16:09 PM 28.6103 -81.3672 337° Northwest 273 314 27,000  Level Jacksonville Center
Thu 01:17:09 PM 28.6900 -81.3875 347° North 273 314 27,000  Level Jacksonville Center
Thu 01:18:09 PM 28.7675 -81.4100 346° North 285 328 27,000  Level Jacksonville Center
Thu 01:19:09 PM 28.8450 -81.4325 346° North 285 328 27,000  Level Jacksonville Center
Thu 01:20:09 PM 28.9183 -81.4597 342° North 285 328 27,000  Level Jacksonville Center
Thu 01:21:09 PM 28.9936 -81.4850 344° North 285 328 27,000  Level Jacksonville Center
Thu 01:22:09 PM 29.0711 -81.5100 344° North 285 328 27,000  Level Jacksonville Center
Thu 01:23:09 PM 29.1486 -81.5325 346° North 285 328 27,000  Level Jacksonville Center
Thu 01:24:09 PM 29.2094 -81.5531 344° North 280 322 27,000  Level Jacksonville Center
Thu 01:25:09 PM 29.2911 -81.5878 340° North 280 322 27,000  Level Jacksonville Center
Thu 01:26:09 PM 29.3667 -81.6131 344° North 285 328 27,000  Level Jacksonville Center
Thu 01:27:09 PM 29.4442 -81.6358 346° North 285 328 27,000  Level Jacksonville Center
Thu 01:28:09 PM 29.5194 -81.6636 342° North 285 328 27,000  Level Jacksonville Center
Thu 01:29:09 PM 29.5969 -81.6889 344° North 285 328 27,000  Level Jacksonville Center
Thu 01:30:09 PM 29.6744 -81.7164 343° North 285 328 27,000  Level Jacksonville Center
Thu 01:31:09 PM 29.7478 -81.7419 343° North 285 328 27,000  Level Jacksonville Center
Thu 01:32:09 PM 29.8253 -81.7650 346° North 285 328 27,000  Level Jacksonville Center
Thu 01:33:09 PM 29.9028 -81.7906 344° North 285 328 27,000  Level Jacksonville Center
Thu 01:34:09 PM 29.9800 -81.8183 343° North 285 328 27,000  Level Jacksonville Center
Thu 01:35:09 PM 30.0597 -81.8389 347° North 285 328 27,000  Level Jacksonville Center
Thu 01:36:09 PM 30.1350 -81.8647 343° North 285 328 27,000  Level Jacksonville Center
Thu 01:37:09 PM 30.2144 -81.8903 344° North 285 328 27,000  Level Jacksonville Center
Thu 01:38:09 PM 30.2900 -81.9206 341° North 285 328 27,000  Level Jacksonville Center
Thu 01:39:09 PM 30.3675 -81.9489 342° North 285 328 27,000  Level Jacksonville Center
Thu 01:40:09 PM 30.4450 -81.9794 341° North 285 328 27,000  Level Jacksonville Center
Thu 01:41:09 PM 30.5244 -82.0100 342° North 291 335 27,000  Level Jacksonville Center
Thu 01:42:09 PM 30.6144 -82.0478 340° North 298 343 27,000  Level Jacksonville Center
Thu 01:43:09 PM 30.6919 -82.0808 340° North 303 349 27,000  Level Jacksonville Center
Thu 01:44:09 PM 30.7736 -82.1139 341° North 303 349 27,000  Level Jacksonville Center
Thu 01:45:09 PM 30.8511 -82.1425 342° North 298 343 27,000  Level Jacksonville Center
Thu 01:46:09 PM 30.9283 -82.1733 341° North 293 337 27,000  Level Jacksonville Center
Thu 01:47:09 PM 31.0058 -82.2067 340° North 293 337 27,000  Level Jacksonville Center
Thu 01:48:09 PM 31.0853 -82.2375 342° North 293 337 27,000  Level Jacksonville Center
Thu 01:49:09 PM 31.1628 -82.2686 341° North 293 337 27,000  Level Jacksonville Center
Thu 01:50:09 PM 31.2403 -82.2997 341° North 293 337 27,000  Level Jacksonville Center
Thu 01:51:09 PM 31.3175 -82.3283 342° North 293 337 27,000  Level Jacksonville Center
Thu 01:52:09 PM 31.3969 -82.3547 344° North 288 331 27,000  Level Jacksonville Center
Thu 01:53:09 PM 31.4764 -82.3858 342° North 288 331 27,000  Level Jacksonville Center
Thu 01:54:09 PM 31.5581 -82.4194 341° North 293 337 27,000  Level Jacksonville Center
Thu 01:55:09 PM 31.6356 -82.4508 341° North 293 337 27,000  Level Jacksonville Center
Thu 01:56:09 PM 31.7150 -82.4822 341° North 293 337 27,000  Level Jacksonville Center
Thu 01:57:09 PM 31.7922 -82.5161 340° North 293 337 27,000  Level Jacksonville Center
Thu 01:58:09 PM 31.8717 -82.5478 341° North 293 337 27,000  Level Jacksonville Center
Thu 01:59:00 PM 31.9361 -82.5753 340° North 290 334 27,000  Level Atlanta Center
Thu 02:00:00 PM 32.0139 -82.6083 340° North 295 339 27,000  Level Atlanta Center
Thu 02:01:00 PM 32.0933 -82.6367 343° North 295 339 27,000 -50 Level Atlanta Center
Thu 02:02:00 PM 32.1711 -82.6722 339° North 290 334 26,900 -350 Descending Atlanta Center
Thu 02:03:00 PM 32.2508 -82.7053 341° North 290 334 26,300 -500 Descending Atlanta Center
Thu 02:04:00 PM 32.3347 -82.7408 340° North 300 345 25,900 -500 Descending Atlanta Center
Thu 02:05:00 PM 32.4043 -82.7653 343° North  Level FlightAware Approximate
Thu 02:06:00 PM 32.4981 -82.8050 343° North 306 352 24,800  Level Atlanta Center
Thu 02:07:00 PM 32.5800 -82.8458 337° Northwest 306 352 23,300 -1,500 Descending Atlanta Center
Thu 02:08:00 PM 32.6494 -82.9164 319° Northwest 312 359 21,800 -1,450 Descending Atlanta Center
Thu 02:09:00 PM 32.7169 -82.9869 319° Northwest 326 375 20,400 -1,450 Descending Atlanta Center
Thu 02:10:00 PM 32.7842 -83.0581 318° Northwest 326 375 18,900 -1,550 Descending Atlanta Center
Thu 02:11:00 PM 32.8453 -83.1217 319° Northwest 313 360 17,300 -1,550 Descending Atlanta Center
Thu 02:12:00 PM 32.9061 -83.1778 322° Northwest 303 349 15,800 -1,450 Descending Atlanta Center
Thu 02:13:00 PM 32.9608 -83.2317 320° Northwest 278 320 14,400 -1,450 Descending Atlanta Center
Thu 02:14:00 PM 33.0175 -83.2931 318° Northwest 263 303 12,900 -1,667 Descending Atlanta Center
Thu 02:16:00 PM 33.1414 -83.4186 320° Northwest 302 348 9,400 -1,567 Descending Atlanta Center
Thu 02:17:00 PM 33.2022 -83.4803 320° Northwest 292 336 8,200 -700 Descending Atlanta Center
Thu 02:18:00 PM 33.2608 -83.5394 320° Northwest 282 325 8,000 -100 Descending Atlanta Center
Thu 02:19:00 PM 33.3175 -83.5939 321° Northwest 270 311 8,000  Level Atlanta Center
Thu 02:20:00 PM 33.3700 -83.6508 318° Northwest 265 305 8,000 -250 Level Atlanta Center
Thu 02:21:00 PM 33.4347 -83.7053 325° Northwest 265 305 7,500 -1,100 Descending Atlanta Center
Thu 02:22:00 PM 33.4975 -83.7572 325° Northwest 270 311 5,800 -1,213 Descending Atlanta Center
Thu 02:23:58 PM 33.6333 -83.8167 340° North 261 300 3,900 -663 Descending Atlanta TRACON
Thu 02:24:52 PM 33.7000 -83.8333 348° North 247 284 3,900  Level Atlanta TRACON
Thu 02:25:52 PM 33.7667 -83.8500 348° North 248 285 3,900  Level Atlanta TRACON
Thu 02:26:52 PM 33.8333 -83.8667 348° North 247 284 3,900 50 Level Atlanta TRACON
Thu 02:27:52 PM 33.8833 -83.9167 320° Northwest 240 276 4,000  Climbing Atlanta TRACON
Thu 02:28:46 PM 33.9333 -83.9500 331° Northwest 238 274 3,900 -53 Descending Atlanta TRACON
Thu 02:29:46 PM 33.9833 -84.0000 320° Northwest 207 238 3,900  Level Atlanta TRACON
Thu 02:30:46 PM 34.0167 -84.0500 309° West 196 226 3,900  Level Atlanta TRACON
Thu 02:31:46 PM 34.0167 -84.1000 270° West 218 251 3,900 -350 Level Atlanta TRACON
Thu 02:32:46 PM 33.9833 -84.1667 239° Southwest 210 242 3,200 -650 Descending Atlanta TRACON
Thu 02:33:46 PM 33.9500 -84.2167 231° Southwest 217 250 2,600 -600 Descending Atlanta TRACON
Thu 02:34:46 PM 33.9167 -84.2833 239° Southwest 220 253 2,000 -600 Descending Atlanta TRACON
Thu 02:36:00 PM 33.8756 -84.3020 220° Southwest  Level Estimated
Thu 02:43:00 PM 33.8756 -84.3020 220° Southwest  Level Estimated
Thu 02:44:00 PM 33.8756 -84.3020 220° Southwest  Level Estimated

Login

Don't have an account? Register now (free) for customized features, flight alerts, and more!